sensor_id;sensor_type;location;lat;lon;timestamp;pressure;altitude;pressure_sealevel;temperature;humidity
21706;BME280;11014;53.076;18.208;2023-03-03T00:03:05;101842.19;;;3.48;67.89
21706;BME280;11014;53.076;18.208;2023-03-03T00:05:38;101834.34;;;3.21;69.23
21706;BME280;11014;53.076;18.208;2023-03-03T00:08:33;101826.75;;;3.26;68.92
21706;BME280;11014;53.076;18.208;2023-03-03T00:11:17;101823.59;;;3.31;68.78
21706;BME280;11014;53.076;18.208;2023-03-03T00:14:53;101812.50;;;3.27;68.97
21706;BME280;11014;53.076;18.208;2023-03-03T00:18:32;101794.84;;;2.83;70.75
21706;BME280;11014;53.076;18.208;2023-03-03T00:26:49;101784.56;;;3.23;69.64
21706;BME280;11014;53.076;18.208;2023-03-03T00:33:43;101787.56;;;3.28;68.84
21706;BME280;11014;53.076;18.208;2023-03-03T00:37:27;101779.44;;;3.04;70.21
21706;BME280;11014;53.076;18.208;2023-03-03T00:43:40;101782.56;;;2.99;71.18
21706;BME280;11014;53.076;18.208;2023-03-03T00:46:40;101781.66;;;3.34;70.02
21706;BME280;11014;53.076;18.208;2023-03-03T00:53:48;101772.06;;;3.16;69.42
21706;BME280;11014;53.076;18.208;2023-03-03T00:56:54;101760.97;;;3.20;69.41
21706;BME280;11014;53.076;18.208;2023-03-03T00:59:34;101754.38;;;3.24;68.98
21706;BME280;11014;53.076;18.208;2023-03-03T01:02:45;101756.34;;;3.22;69.08
21706;BME280;11014;53.076;18.208;2023-03-03T01:05:42;101759.59;;;2.73;70.51
21706;BME280;11014;53.076;18.208;2023-03-03T01:09:10;101760.66;;;2.80;71.28
21706;BME280;11014;53.076;18.208;2023-03-03T01:11:47;101759.28;;;2.76;71.80
21706;BME280;11014;53.076;18.208;2023-03-03T01:14:21;101775.06;;;2.95;70.81
21706;BME280;11014;53.076;18.208;2023-03-03T01:16:51;101780.09;;;3.06;70.09
21706;BME280;11014;53.076;18.208;2023-03-03T01:19:21;101783.16;;;3.11;69.88
21706;BME280;11014;53.076;18.208;2023-03-03T01:21:50;101782.75;;;3.24;69.25
21706;BME280;11014;53.076;18.208;2023-03-03T01:24:21;101770.13;;;3.26;69.20
21706;BME280;11014;53.076;18.208;2023-03-03T01:26:59;101777.59;;;3.22;69.10
21706;BME280;11014;53.076;18.208;2023-03-03T01:29:29;101764.69;;;3.27;68.95
21706;BME280;11014;53.076;18.208;2023-03-03T01:31:58;101771.28;;;3.23;68.91
21706;BME280;11014;53.076;18.208;2023-03-03T01:34:27;101775.06;;;3.21;68.75
21706;BME280;11014;53.076;18.208;2023-03-03T01:36:55;101768.94;;;3.20;68.65
21706;BME280;11014;53.076;18.208;2023-03-03T01:39:29;101759.00;;;3.22;68.64
21706;BME280;11014;53.076;18.208;2023-03-03T01:41:57;101771.75;;;3.19;68.76
21706;BME280;11014;53.076;18.208;2023-03-03T01:44:31;101760.59;;;3.15;68.89
21706;BME280;11014;53.076;18.208;2023-03-03T01:47:06;101751.00;;;3.14;68.82
21706;BME280;11014;53.076;18.208;2023-03-03T01:50:05;101744.84;;;3.14;68.81
21706;BME280;11014;53.076;18.208;2023-03-03T01:52:44;101747.84;;;3.19;68.40
21706;BME280;11014;53.076;18.208;2023-03-03T01:55:22;101761.66;;;3.22;68.28
21706;BME280;11014;53.076;18.208;2023-03-03T01:57:58;101735.56;;;3.18;67.99
21706;BME280;11014;53.076;18.208;2023-03-03T02:00:35;101736.34;;;3.10;68.35
21706;BME280;11014;53.076;18.208;2023-03-03T02:03:05;101747.94;;;3.09;68.51
21706;BME280;11014;53.076;18.208;2023-03-03T02:05:34;101755.59;;;3.12;68.45
21706;BME280;11014;53.076;18.208;2023-03-03T02:08:03;101756.91;;;3.08;68.69
21706;BME280;11014;53.076;18.208;2023-03-03T02:10:37;101745.69;;;3.14;68.27
21706;BME280;11014;53.076;18.208;2023-03-03T02:13:09;101748.00;;;3.17;67.99
21706;BME280;11014;53.076;18.208;2023-03-03T02:15:46;101738.81;;;3.12;68.33
21706;BME280;11014;53.076;18.208;2023-03-03T02:18:16;101731.88;;;3.11;68.15
21706;BME280;11014;53.076;18.208;2023-03-03T02:20:54;101747.50;;;3.14;68.39
21706;BME280;11014;53.076;18.208;2023-03-03T02:23:37;101738.38;;;3.16;67.83
21706;BME280;11014;53.076;18.208;2023-03-03T02:26:15;101733.22;;;3.15;67.99
21706;BME280;11014;53.076;18.208;2023-03-03T02:28:45;101732.00;;;3.09;68.24
21706;BME280;11014;53.076;18.208;2023-03-03T02:31:18;101729.00;;;3.04;68.23
21706;BME280;11014;53.076;18.208;2023-03-03T02:33:51;101731.81;;;3.03;68.33
21706;BME280;11014;53.076;18.208;2023-03-03T02:36:23;101722.47;;;2.98;68.18
21706;BME280;11014;53.076;18.208;2023-03-03T02:39:17;101725.34;;;3.05;67.84
21706;BME280;11014;53.076;18.208;2023-03-03T02:42:23;101713.75;;;3.06;68.16
21706;BME280;11014;53.076;18.208;2023-03-03T02:44:58;101701.06;;;2.74;68.85
21706;BME280;11014;53.076;18.208;2023-03-03T02:47:31;101694.84;;;2.66;69.54
21706;BME280;11014;53.076;18.208;2023-03-03T02:50:00;101696.66;;;2.83;69.31
21706;BME280;11014;53.076;18.208;2023-03-03T02:52:28;101693.09;;;2.92;68.52
21706;BME280;11014;53.076;18.208;2023-03-03T02:54:57;101708.91;;;3.02;68.27
21706;BME280;11014;53.076;18.208;2023-03-03T02:57:27;101709.13;;;3.08;68.01
21706;BME280;11014;53.076;18.208;2023-03-03T02:59:57;101703.66;;;3.10;67.97
21706;BME280;11014;53.076;18.208;2023-03-03T03:02:26;101701.88;;;3.18;67.74
21706;BME280;11014;53.076;18.208;2023-03-03T03:04:56;101703.56;;;3.19;67.38
21706;BME280;11014;53.076;18.208;2023-03-03T03:07:26;101705.22;;;3.20;67.17
21706;BME280;11014;53.076;18.208;2023-03-03T03:09:54;101706.53;;;3.16;67.16
21706;BME280;11014;53.076;18.208;2023-03-03T03:12:23;101697.41;;;3.19;67.21
21706;BME280;11014;53.076;18.208;2023-03-03T03:14:56;101691.78;;;2.96;67.97
21706;BME280;11014;53.076;18.208;2023-03-03T03:17:26;101694.56;;;2.69;69.10
21706;BME280;11014;53.076;18.208;2023-03-03T03:19:55;101691.06;;;2.86;68.75
21706;BME280;11014;53.076;18.208;2023-03-03T03:22:24;101692.91;;;2.93;68.73
21706;BME280;11014;53.076;18.208;2023-03-03T03:24:53;101688.97;;;2.97;68.01
21706;BME280;11014;53.076;18.208;2023-03-03T03:27:25;101695.44;;;2.95;68.08
21706;BME280;11014;53.076;18.208;2023-03-03T03:29:54;101689.19;;;3.04;67.58
21706;BME280;11014;53.076;18.208;2023-03-03T03:32:26;101677.94;;;3.10;67.33
21706;BME280;11014;53.076;18.208;2023-03-03T03:35:06;101679.75;;;3.10;67.97
21706;BME280;11014;53.076;18.208;2023-03-03T03:37:42;101671.38;;;2.96;67.86
21706;BME280;11014;53.076;18.208;2023-03-03T03:40:13;101666.75;;;2.73;68.42
21706;BME280;11014;53.076;18.208;2023-03-03T03:43:18;101669.69;;;2.70;69.15
21706;BME280;11014;53.076;18.208;2023-03-03T03:45:49;101671.16;;;2.64;69.21
21706;BME280;11014;53.076;18.208;2023-03-03T03:48:26;101673.03;;;2.72;69.16
21706;BME280;11014;53.076;18.208;2023-03-03T03:50:56;101665.66;;;2.66;69.27
21706;BME280;11014;53.076;18.208;2023-03-03T03:53:27;101659.69;;;2.64;69.28
21706;BME280;11014;53.076;18.208;2023-03-03T03:55:56;101670.59;;;2.61;69.71
21706;BME280;11014;53.076;18.208;2023-03-03T03:58:25;101667.03;;;2.70;69.32
21706;BME280;11014;53.076;18.208;2023-03-03T04:01:04;101671.22;;;2.72;69.37
21706;BME280;11014;53.076;18.208;2023-03-03T04:03:37;101676.56;;;2.80;68.82
21706;BME280;11014;53.076;18.208;2023-03-03T04:06:10;101665.19;;;2.88;68.63
21706;BME280;11014;53.076;18.208;2023-03-03T04:08:39;101673.31;;;2.86;68.22
21706;BME280;11014;53.076;18.208;2023-03-03T04:11:09;101674.66;;;2.90;68.07
21706;BME280;11014;53.076;18.208;2023-03-03T04:13:38;101678.75;;;2.85;68.43
21706;BME280;11014;53.076;18.208;2023-03-03T04:16:09;101686.47;;;2.96;67.93
21706;BME280;11014;53.076;18.208;2023-03-03T04:18:41;101690.94;;;2.95;68.15
21706;BME280;11014;53.076;18.208;2023-03-03T04:21:16;101687.91;;;2.90;68.09
21706;BME280;11014;53.076;18.208;2023-03-03T04:26:34;101688.81;;;2.99;67.54
21706;BME280;11014;53.076;18.208;2023-03-03T04:29:06;101682.63;;;2.90;67.88
21706;BME280;11014;53.076;18.208;2023-03-03T04:31:35;101684.81;;;2.95;67.71
21706;BME280;11014;53.076;18.208;2023-03-03T04:34:06;101689.44;;;2.93;67.73
21706;BME280;11014;53.076;18.208;2023-03-03T04:36:35;101686.28;;;2.89;67.75
21706;BME280;11014;53.076;18.208;2023-03-03T04:39:04;101692.38;;;2.90;67.85
21706;BME280;11014;53.076;18.208;2023-03-03T04:41:32;101699.16;;;2.84;68.27
21706;BME280;11014;53.076;18.208;2023-03-03T04:44:02;101699.97;;;2.85;67.93
21706;BME280;11014;53.076;18.208;2023-03-03T04:46:30;101705.47;;;2.83;68.18
21706;BME280;11014;53.076;18.208;2023-03-03T04:48:59;101697.63;;;2.82;68.23
21706;BME280;11014;53.076;18.208;2023-03-03T04:51:28;101689.06;;;2.88;67.92
21706;BME280;11014;53.076;18.208;2023-03-03T04:53:57;101684.66;;;2.79;68.22
21706;BME280;11014;53.076;18.208;2023-03-03T04:56:29;101681.34;;;2.77;68.63
21706;BME280;11014;53.076;18.208;2023-03-03T04:58:59;101689.59;;;2.74;68.52
21706;BME280;11014;53.076;18.208;2023-03-03T05:01:54;101689.31;;;2.77;68.70
21706;BME280;11014;53.076;18.208;2023-03-03T05:04:22;101674.28;;;2.85;68.32
21706;BME280;11014;53.076;18.208;2023-03-03T05:06:51;101681.94;;;2.88;68.21
21706;BME280;11014;53.076;18.208;2023-03-03T05:09:20;101692.69;;;2.87;67.98
21706;BME280;11014;53.076;18.208;2023-03-03T05:11:48;101698.94;;;2.78;68.28
21706;BME280;11014;53.076;18.208;2023-03-03T05:14:17;101698.78;;;2.79;68.49
21706;BME280;11014;53.076;18.208;2023-03-03T05:16:46;101684.38;;;2.82;68.63
21706;BME280;11014;53.076;18.208;2023-03-03T05:19:15;101691.66;;;2.80;68.67
21706;BME280;11014;53.076;18.208;2023-03-03T05:21:43;101693.03;;;2.84;68.83
21706;BME280;11014;53.076;18.208;2023-03-03T05:24:14;101689.06;;;2.88;68.63
21706;BME280;11014;53.076;18.208;2023-03-03T05:26:42;101688.22;;;2.87;68.88
21706;BME280;11014;53.076;18.208;2023-03-03T05:29:11;101683.75;;;2.88;68.97
21706;BME280;11014;53.076;18.208;2023-03-03T05:31:39;101689.72;;;2.90;69.00
21706;BME280;11014;53.076;18.208;2023-03-03T05:34:11;101681.47;;;2.93;68.69
21706;BME280;11014;53.076;18.208;2023-03-03T05:36:39;101676.69;;;2.96;68.67
21706;BME280;11014;53.076;18.208;2023-03-03T05:39:08;101679.72;;;3.02;68.67
21706;BME280;11014;53.076;18.208;2023-03-03T05:41:37;101673.69;;;2.91;68.94
21706;BME280;11014;53.076;18.208;2023-03-03T05:44:06;101663.59;;;2.95;68.89
21706;BME280;11014;53.076;18.208;2023-03-03T05:46:34;101670.53;;;2.96;69.21
21706;BME280;11014;53.076;18.208;2023-03-03T05:49:03;101667.84;;;2.88;69.19
21706;BME280;11014;53.076;18.208;2023-03-03T05:51:32;101663.91;;;2.92;69.34
21706;BME280;11014;53.076;18.208;2023-03-03T05:54:01;101654.25;;;2.91;69.65
21706;BME280;11014;53.076;18.208;2023-03-03T05:56:29;101656.38;;;2.87;70.04
21706;BME280;11014;53.076;18.208;2023-03-03T05:58:58;101671.47;;;2.87;70.07
21706;BME280;11014;53.076;18.208;2023-03-03T06:01:26;101665.53;;;2.93;69.75
21706;BME280;11014;53.076;18.208;2023-03-03T06:03:56;101665.84;;;2.90;69.89
21706;BME280;11014;53.076;18.208;2023-03-03T06:06:24;101669.50;;;2.89;70.20
21706;BME280;11014;53.076;18.208;2023-03-03T06:08:54;101665.03;;;2.89;70.46
21706;BME280;11014;53.076;18.208;2023-03-03T06:11:24;101676.16;;;2.93;70.37
21706;BME280;11014;53.076;18.208;2023-03-03T06:13:52;101679.50;;;2.95;70.39
21706;BME280;11014;53.076;18.208;2023-03-03T06:16:21;101679.56;;;3.03;70.14
21706;BME280;11014;53.076;18.208;2023-03-03T06:18:50;101680.25;;;3.05;70.42
21706;BME280;11014;53.076;18.208;2023-03-03T06:21:18;101677.41;;;3.07;70.13
21706;BME280;11014;53.076;18.208;2023-03-03T06:23:47;101675.13;;;3.12;70.07
21706;BME280;11014;53.076;18.208;2023-03-03T06:26:15;101681.44;;;3.11;70.42
21706;BME280;11014;53.076;18.208;2023-03-03T06:28:44;101680.66;;;3.18;70.49
21706;BME280;11014;53.076;18.208;2023-03-03T06:31:12;101675.75;;;3.31;69.68
21706;BME280;11014;53.076;18.208;2023-03-03T06:33:41;101684.38;;;3.33;69.70
21706;BME280;11014;53.076;18.208;2023-03-03T06:36:10;101685.53;;;3.31;69.84
21706;BME280;11014;53.076;18.208;2023-03-03T06:38:39;101677.09;;;3.35;69.96
21706;BME280;11014;53.076;18.208;2023-03-03T06:41:08;101669.50;;;3.40;69.76
21706;BME280;11014;53.076;18.208;2023-03-03T06:43:37;101686.84;;;3.27;69.84
21706;BME280;11014;53.076;18.208;2023-03-03T06:46:06;101690.44;;;3.18;70.30
21706;BME280;11014;53.076;18.208;2023-03-03T06:48:34;101687.31;;;3.22;69.84
21706;BME280;11014;53.076;18.208;2023-03-03T06:51:16;101686.69;;;3.03;70.45
21706;BME280;11014;53.076;18.208;2023-03-03T06:53:50;101701.34;;;3.15;70.24
21706;BME280;11014;53.076;18.208;2023-03-03T06:56:19;101708.22;;;3.25;70.35
21706;BME280;11014;53.076;18.208;2023-03-03T06:58:48;101708.97;;;3.35;69.83
21706;BME280;11014;53.076;18.208;2023-03-03T07:01:16;101711.88;;;3.24;69.57
21706;BME280;11014;53.076;18.208;2023-03-03T07:03:45;101721.38;;;3.27;69.88
21706;BME280;11014;53.076;18.208;2023-03-03T07:06:20;101724.56;;;3.13;70.03
21706;BME280;11014;53.076;18.208;2023-03-03T07:08:51;101716.03;;;3.01;70.66
21706;BME280;11014;53.076;18.208;2023-03-03T07:11:21;101721.78;;;3.14;70.44
21706;BME280;11014;53.076;18.208;2023-03-03T07:13:52;101723.75;;;3.12;70.40
21706;BME280;11014;53.076;18.208;2023-03-03T07:16:26;101729.47;;;3.25;70.07
21706;BME280;11014;53.076;18.208;2023-03-03T07:18:59;101732.19;;;3.33;69.56
21706;BME280;11014;53.076;18.208;2023-03-03T07:21:35;101729.59;;;3.41;69.51
21706;BME280;11014;53.076;18.208;2023-03-03T07:24:27;101742.19;;;3.39;69.21
21706;BME280;11014;53.076;18.208;2023-03-03T07:27:10;101726.84;;;3.33;69.30
21706;BME280;11014;53.076;18.208;2023-03-03T07:29:39;101736.56;;;3.42;68.90
21706;BME280;11014;53.076;18.208;2023-03-03T07:32:42;101743.22;;;3.46;69.42
21706;BME280;11014;53.076;18.208;2023-03-03T07:37:58;101755.81;;;3.44;69.34
21706;BME280;11014;53.076;18.208;2023-03-03T07:43:25;101752.09;;;3.29;69.83
21706;BME280;11014;53.076;18.208;2023-03-03T07:48:40;101762.19;;;3.51;69.44
21706;BME280;11014;53.076;18.208;2023-03-03T07:51:35;101767.19;;;3.54;69.10
21706;BME280;11014;53.076;18.208;2023-03-03T07:54:34;101763.31;;;3.75;68.80
21706;BME280;11014;53.076;18.208;2023-03-03T07:57:23;101762.97;;;3.78;68.57
21706;BME280;11014;53.076;18.208;2023-03-03T08:02:57;101762.75;;;3.63;68.74
21706;BME280;11014;53.076;18.208;2023-03-03T08:05:33;101752.13;;;3.63;68.83
21706;BME280;11014;53.076;18.208;2023-03-03T08:08:14;101771.88;;;3.61;69.02
21706;BME280;11014;53.076;18.208;2023-03-03T08:10:53;101768.94;;;3.72;69.00
21706;BME280;11014;53.076;18.208;2023-03-03T08:16:20;101768.31;;;3.78;69.22
21706;BME280;11014;53.076;18.208;2023-03-03T08:18:52;101769.97;;;3.79;69.02
21706;BME280;11014;53.076;18.208;2023-03-03T08:21:25;101766.72;;;3.93;68.47
21706;BME280;11014;53.076;18.208;2023-03-03T08:23:54;101772.88;;;3.93;68.35
21706;BME280;11014;53.076;18.208;2023-03-03T08:26:25;101775.06;;;3.98;68.70
21706;BME280;11014;53.076;18.208;2023-03-03T08:28:54;101774.78;;;4.09;68.28
21706;BME280;11014;53.076;18.208;2023-03-03T08:31:22;101781.44;;;4.21;68.20
21706;BME280;11014;53.076;18.208;2023-03-03T08:34:07;101781.31;;;4.31;67.71
21706;BME280;11014;53.076;18.208;2023-03-03T08:36:36;101774.53;;;4.36;67.45
21706;BME280;11014;53.076;18.208;2023-03-03T08:39:04;101777.84;;;4.38;67.52
21706;BME280;11014;53.076;18.208;2023-03-03T08:41:33;101771.22;;;4.42;67.16
21706;BME280;11014;53.076;18.208;2023-03-03T08:44:01;101771.69;;;4.38;67.14
21706;BME280;11014;53.076;18.208;2023-03-03T08:46:30;101765.53;;;4.37;67.37
21706;BME280;11014;53.076;18.208;2023-03-03T08:48:58;101762.19;;;4.27;67.64
21706;BME280;11014;53.076;18.208;2023-03-03T08:51:27;101765.88;;;4.34;67.36
21706;BME280;11014;53.076;18.208;2023-03-03T08:53:56;101758.91;;;4.41;67.20
21706;BME280;11014;53.076;18.208;2023-03-03T08:56:24;101774.91;;;4.57;66.88
21706;BME280;11014;53.076;18.208;2023-03-03T08:58:53;101772.22;;;4.49;66.90
21706;BME280;11014;53.076;18.208;2023-03-03T09:01:48;101780.88;;;4.59;66.71
21706;BME280;11014;53.076;18.208;2023-03-03T09:04:17;101781.09;;;4.66;66.51
21706;BME280;11014;53.076;18.208;2023-03-03T09:06:46;101781.09;;;4.74;66.41
21706;BME280;11014;53.076;18.208;2023-03-03T09:09:16;101777.91;;;4.70;66.45
21706;BME280;11014;53.076;18.208;2023-03-03T09:11:44;101771.59;;;4.71;66.84
21706;BME280;11014;53.076;18.208;2023-03-03T09:14:16;101768.28;;;4.61;66.75
21706;BME280;11014;53.076;18.208;2023-03-03T09:16:50;101763.63;;;4.63;67.00
21706;BME280;11014;53.076;18.208;2023-03-03T09:19:23;101752.16;;;4.79;66.85
21706;BME280;11014;53.076;18.208;2023-03-03T09:21:54;101748.97;;;4.84;66.85
21706;BME280;11014;53.076;18.208;2023-03-03T09:24:26;101750.66;;;4.93;66.70
21706;BME280;11014;53.076;18.208;2023-03-03T09:26:57;101748.66;;;5.03;66.49
21706;BME280;11014;53.076;18.208;2023-03-03T09:29:29;101748.66;;;5.03;66.01
21706;BME280;11014;53.076;18.208;2023-03-03T09:34:47;101735.66;;;5.32;65.89
21706;BME280;11014;53.076;18.208;2023-03-03T09:37:23;101727.31;;;5.43;65.43
21706;BME280;11014;53.076;18.208;2023-03-03T09:39:56;101726.66;;;5.33;65.35
21706;BME280;11014;53.076;18.208;2023-03-03T09:43:01;101722.03;;;5.19;65.34
21706;BME280;11014;53.076;18.208;2023-03-03T09:45:49;101730.00;;;5.35;65.19
21706;BME280;11014;53.076;18.208;2023-03-03T09:58:03;101718.25;;;5.60;64.85
21706;BME280;11014;53.076;18.208;2023-03-03T10:06:32;101707.91;;;5.73;64.30
21706;BME280;11014;53.076;18.208;2023-03-03T10:12:12;101713.53;;;5.86;63.39
21706;BME280;11014;53.076;18.208;2023-03-03T10:17:40;101712.84;;;5.92;63.36
21706;BME280;11014;53.076;18.208;2023-03-03T10:20:38;101701.84;;;5.95;63.39
21706;BME280;11014;53.076;18.208;2023-03-03T10:23:23;101694.59;;;6.04;63.16
21706;BME280;11014;53.076;18.208;2023-03-03T10:26:18;101703.66;;;6.26;63.11
21706;BME280;11014;53.076;18.208;2023-03-03T10:29:53;101697.81;;;6.00;62.98
21706;BME280;11014;53.076;18.208;2023-03-03T10:53:21;101711.34;;;6.21;62.38
21706;BME280;11014;53.076;18.208;2023-03-03T11:05:48;101707.53;;;6.15;62.19
21706;BME280;11014;53.076;18.208;2023-03-03T11:07:57;101699.19;;;5.87;62.68
21706;BME280;11014;53.076;18.208;2023-03-03T11:10:45;101698.44;;;6.02;62.72
21706;BME280;11014;53.076;18.208;2023-03-03T11:24:22;101674.78;;;5.98;62.87
21706;BME280;11014;53.076;18.208;2023-03-03T11:30:26;101674.25;;;6.34;62.36
21706;BME280;11014;53.076;18.208;2023-03-03T11:40:55;101675.38;;;6.17;62.28
21706;BME280;11014;53.076;18.208;2023-03-03T11:46:12;101663.09;;;6.08;62.31
21706;BME280;11014;53.076;18.208;2023-03-03T11:49:02;101665.53;;;6.17;62.31
21706;BME280;11014;53.076;18.208;2023-03-03T11:52:00;101678.03;;;6.17;62.39
21706;BME280;11014;53.076;18.208;2023-03-03T11:57:35;101661.00;;;6.18;62.51
21706;BME280;11014;53.076;18.208;2023-03-03T12:00:40;101662.97;;;6.24;62.15
21706;BME280;11014;53.076;18.208;2023-03-03T12:03:32;101656.25;;;6.36;61.90
21706;BME280;11014;53.076;18.208;2023-03-03T12:06:14;101661.03;;;6.40;62.26
21706;BME280;11014;53.076;18.208;2023-03-03T12:09:13;101660.06;;;6.56;61.68
21706;BME280;11014;53.076;18.208;2023-03-03T12:11:57;101664.41;;;6.57;61.63
21706;BME280;11014;53.076;18.208;2023-03-03T12:24:01;101658.00;;;6.66;61.76
21706;BME280;11014;53.076;18.208;2023-03-03T12:26:49;101649.47;;;6.48;61.68
21706;BME280;11014;53.076;18.208;2023-03-03T12:33:02;101634.53;;;6.39;62.14
21706;BME280;11014;53.076;18.208;2023-03-03T12:35:53;101640.28;;;6.28;62.47
21706;BME280;11014;53.076;18.208;2023-03-03T12:39:01;101639.75;;;6.55;62.16
21706;BME280;11014;53.076;18.208;2023-03-03T12:42:03;101633.53;;;6.77;61.62
21706;BME280;11014;53.076;18.208;2023-03-03T12:47:27;101637.28;;;6.68;61.01
21706;BME280;11014;53.076;18.208;2023-03-03T12:53:27;101637.00;;;6.63;61.32
21706;BME280;11014;53.076;18.208;2023-03-03T12:59:03;101632.66;;;6.62;60.90
21706;BME280;11014;53.076;18.208;2023-03-03T13:05:08;101625.38;;;6.93;60.27
21706;BME280;11014;53.076;18.208;2023-03-03T13:07:42;101619.63;;;6.82;60.43
21706;BME280;11014;53.076;18.208;2023-03-03T13:11:26;101612.34;;;6.76;60.63
21706;BME280;11014;53.076;18.208;2023-03-03T13:13:53;101619.38;;;6.91;60.53
21706;BME280;11014;53.076;18.208;2023-03-03T13:17:00;101616.63;;;6.99;60.31
21706;BME280;11014;53.076;18.208;2023-03-03T13:20:00;101608.53;;;7.07;60.01
21706;BME280;11014;53.076;18.208;2023-03-03T13:22:46;101610.91;;;7.02;60.00
21706;BME280;11014;53.076;18.208;2023-03-03T13:25:34;101604.28;;;6.98;59.86
21706;BME280;11014;53.076;18.208;2023-03-03T13:28:30;101592.50;;;7.07;59.87
21706;BME280;11014;53.076;18.208;2023-03-03T13:31:15;101608.31;;;6.94;59.86
21706;BME280;11014;53.076;18.208;2023-03-03T13:34:07;101592.50;;;7.07;59.72
21706;BME280;11014;53.076;18.208;2023-03-03T13:36:41;101591.38;;;6.87;59.66
21706;BME280;11014;53.076;18.208;2023-03-03T13:39:26;101595.06;;;6.86;59.80
21706;BME280;11014;53.076;18.208;2023-03-03T13:42:19;101590.91;;;6.84;59.95
21706;BME280;11014;53.076;18.208;2023-03-03T13:44:50;101586.59;;;6.97;59.69
21706;BME280;11014;53.076;18.208;2023-03-03T13:47:26;101586.59;;;6.97;59.80
21706;BME280;11014;53.076;18.208;2023-03-03T13:51:06;101585.84;;;7.03;59.74
21706;BME280;11014;53.076;18.208;2023-03-03T14:05:29;101572.50;;;7.03;58.99
21706;BME280;11014;53.076;18.208;2023-03-03T14:14:03;101570.38;;;7.13;58.48
21706;BME280;11014;53.076;18.208;2023-03-03T14:16:46;101568.28;;;7.24;58.14
21706;BME280;11014;53.076;18.208;2023-03-03T14:19:20;101562.00;;;7.16;58.14
21706;BME280;11014;53.076;18.208;2023-03-03T14:22:05;101563.66;;;7.03;58.35
21706;BME280;11014;53.076;18.208;2023-03-03T14:25:06;101560.16;;;7.17;57.82
21706;BME280;11014;53.076;18.208;2023-03-03T14:30:31;101552.81;;;7.55;56.67
21706;BME280;11014;53.076;18.208;2023-03-03T14:36:24;101544.28;;;7.45;56.51
21706;BME280;11014;53.076;18.208;2023-03-03T14:38:56;101536.78;;;7.55;56.32
21706;BME280;11014;53.076;18.208;2023-03-03T14:41:40;101536.78;;;7.55;56.17
21706;BME280;11014;53.076;18.208;2023-03-03T14:44:24;101528.00;;;7.10;56.44
21706;BME280;11014;53.076;18.208;2023-03-03T14:49:39;101526.50;;;7.37;56.69
21706;BME280;11014;53.076;18.208;2023-03-03T14:52:18;101523.88;;;7.44;56.26
21706;BME280;11014;53.076;18.208;2023-03-03T14:54:53;101529.78;;;7.54;56.03
21706;BME280;11014;53.076;18.208;2023-03-03T15:05:54;101505.66;;;7.33;56.34
21706;BME280;11014;53.076;18.208;2023-03-03T15:08:58;101510.34;;;7.45;56.73
21706;BME280;11014;53.076;18.208;2023-03-03T15:12:33;101499.88;;;7.29;56.41
21706;BME280;11014;53.076;18.208;2023-03-03T15:17:39;101500.03;;;7.42;56.15
21706;BME280;11014;53.076;18.208;2023-03-03T15:20:21;101506.63;;;7.46;56.15
21706;BME280;11014;53.076;18.208;2023-03-03T15:26:41;101493.59;;;7.37;56.14
21706;BME280;11014;53.076;18.208;2023-03-03T15:32:22;101489.88;;;7.38;56.30
21706;BME280;11014;53.076;18.208;2023-03-03T15:35:24;101487.81;;;7.18;56.65
21706;BME280;11014;53.076;18.208;2023-03-03T15:41:07;101493.72;;;7.29;56.88
21706;BME280;11014;53.076;18.208;2023-03-03T15:43:56;101498.41;;;7.27;56.96
21706;BME280;11014;53.076;18.208;2023-03-03T15:46:46;101499.06;;;7.29;56.69
21706;BME280;11014;53.076;18.208;2023-03-03T15:52:47;101497.88;;;7.16;57.22
21706;BME280;11014;53.076;18.208;2023-03-03T15:56:06;101479.72;;;7.12;56.93
21706;BME280;11014;53.076;18.208;2023-03-03T15:59:07;101480.63;;;7.19;57.16
21706;BME280;11014;53.076;18.208;2023-03-03T16:01:52;101478.25;;;7.09;57.29
21706;BME280;11014;53.076;18.208;2023-03-03T16:04:33;101467.59;;;7.09;57.23
21706;BME280;11014;53.076;18.208;2023-03-03T16:10:41;101466.69;;;6.73;58.03
21706;BME280;11014;53.076;18.208;2023-03-03T16:13:22;101467.88;;;6.85;58.00
21706;BME280;11014;53.076;18.208;2023-03-03T16:24:55;101463.38;;;6.71;58.16
21706;BME280;11014;53.076;18.208;2023-03-03T16:27:49;101466.97;;;6.64;58.37
21706;BME280;11014;53.076;18.208;2023-03-03T16:30:38;101470.28;;;6.66;58.31
21706;BME280;11014;53.076;18.208;2023-03-03T16:33:14;101465.94;;;6.65;58.58
21706;BME280;11014;53.076;18.208;2023-03-03T16:38:42;101469.44;;;6.36;58.94
21706;BME280;11014;53.076;18.208;2023-03-03T16:41:18;101464.28;;;6.20;59.67
21706;BME280;11014;53.076;18.208;2023-03-03T16:44:15;101457.63;;;6.16;59.59
21706;BME280;11014;53.076;18.208;2023-03-03T16:46:49;101471.19;;;5.91;60.61
21706;BME280;11014;53.076;18.208;2023-03-03T16:49:45;101460.53;;;5.91;60.44
21706;BME280;11014;53.076;18.208;2023-03-03T16:52:15;101468.44;;;6.00;60.14
21706;BME280;11014;53.076;18.208;2023-03-03T16:54:54;101464.44;;;6.04;60.10
21706;BME280;11014;53.076;18.208;2023-03-03T17:00:13;101459.91;;;5.81;60.58
21706;BME280;11014;53.076;18.208;2023-03-03T17:05:54;101459.44;;;5.78;60.95
21706;BME280;11014;53.076;18.208;2023-03-03T17:08:51;101465.94;;;5.75;60.86
21706;BME280;11014;53.076;18.208;2023-03-03T17:17:42;101465.44;;;5.57;61.69
21706;BME280;11014;53.076;18.208;2023-03-03T17:25:49;101454.84;;;5.41;61.82
21706;BME280;11014;53.076;18.208;2023-03-03T17:29:17;101459.19;;;5.42;62.36
21706;BME280;11014;53.076;18.208;2023-03-03T17:31:26;101449.28;;;5.28;62.77
21706;BME280;11014;53.076;18.208;2023-03-03T17:34:28;101456.94;;;5.31;62.76
21706;BME280;11014;53.076;18.208;2023-03-03T17:41:35;101451.78;;;5.29;62.83